sensor_id;sensor_type;location;lat;lon;timestamp;pressure;altitude;pressure_sealevel;temperature;humidity
58018;BME280;43810;50.860;19.226;2023-04-28T00:00:11;99045.16;;;4.66;71.77
58018;BME280;43810;50.860;19.226;2023-04-28T00:02:56;99048.06;;;4.64;71.77
58018;BME280;43810;50.860;19.226;2023-04-28T00:05:22;99041.97;;;4.69;71.29
58018;BME280;43810;50.860;19.226;2023-04-28T00:07:49;99042.97;;;4.73;70.97
58018;BME280;43810;50.860;19.226;2023-04-28T00:10:18;99043.72;;;4.78;70.83
58018;BME280;43810;50.860;19.226;2023-04-28T00:12:46;99041.78;;;4.84;70.23
58018;BME280;43810;50.860;19.226;2023-04-28T00:15:12;99041.00;;;4.83;70.08
58018;BME280;43810;50.860;19.226;2023-04-28T00:17:38;99036.25;;;4.85;70.22
58018;BME280;43810;50.860;19.226;2023-04-28T00:20:04;99045.22;;;4.84;70.85
58018;BME280;43810;50.860;19.226;2023-04-28T00:22:30;99040.03;;;4.79;71.42
58018;BME280;43810;50.860;19.226;2023-04-28T00:24:56;99049.47;;;4.80;70.75
58018;BME280;43810;50.860;19.226;2023-04-28T00:27:22;99041.59;;;4.80;70.61
58018;BME280;43810;50.860;19.226;2023-04-28T00:29:48;99042.66;;;4.79;70.76
58018;BME280;43810;50.860;19.226;2023-04-28T00:32:13;99042.34;;;4.81;70.90
58018;BME280;43810;50.860;19.226;2023-04-28T00:34:39;99041.06;;;4.78;71.04
58018;BME280;43810;50.860;19.226;2023-04-28T00:37:05;99041.59;;;4.80;71.33
58018;BME280;43810;50.860;19.226;2023-04-28T00:39:31;99031.44;;;4.69;71.39
58018;BME280;43810;50.860;19.226;2023-04-28T00:41:56;99031.91;;;4.71;71.73
58018;BME280;43810;50.860;19.226;2023-04-28T00:44:22;99038.03;;;4.66;71.37
58018;BME280;43810;50.860;19.226;2023-04-28T00:46:48;99043.03;;;4.68;71.05
58018;BME280;43810;50.860;19.226;2023-04-28T00:49:14;99046.47;;;4.63;71.60
58018;BME280;43810;50.860;19.226;2023-04-28T00:51:41;99047.03;;;4.60;71.73
58018;BME280;43810;50.860;19.226;2023-04-28T00:54:06;99048.59;;;4.61;71.18
58018;BME280;43810;50.860;19.226;2023-04-28T00:56:32;99053.06;;;4.60;71.11
58018;BME280;43810;50.860;19.226;2023-04-28T00:58:59;99051.91;;;4.72;71.04
58018;BME280;43810;50.860;19.226;2023-04-28T01:01:24;99044.88;;;4.67;71.21
58018;BME280;43810;50.860;19.226;2023-04-28T01:03:51;99047.22;;;4.69;71.40
58018;BME280;43810;50.860;19.226;2023-04-28T01:06:16;99056.72;;;4.64;71.39
58018;BME280;43810;50.860;19.226;2023-04-28T01:08:47;99055.97;;;4.59;72.13
58018;BME280;43810;50.860;19.226;2023-04-28T01:11:13;99055.75;;;4.55;71.76
58018;BME280;43810;50.860;19.226;2023-04-28T01:13:39;99052.88;;;4.52;71.48
58018;BME280;43810;50.860;19.226;2023-04-28T01:16:08;99062.34;;;4.53;71.82
58018;BME280;43810;50.860;19.226;2023-04-28T01:18:34;99055.53;;;4.52;71.13
58018;BME280;43810;50.860;19.226;2023-04-28T01:21:00;99042.91;;;4.49;71.44
58018;BME280;43810;50.860;19.226;2023-04-28T01:23:26;99050.34;;;4.42;71.43
58018;BME280;43810;50.860;19.226;2023-04-28T01:25:51;99042.28;;;4.33;71.17
58018;BME280;43810;50.860;19.226;2023-04-28T01:28:17;99050.72;;;4.25;71.82
58018;BME280;43810;50.860;19.226;2023-04-28T01:30:43;99046.06;;;4.17;71.92
58018;BME280;43810;50.860;19.226;2023-04-28T01:33:09;99050.06;;;4.09;72.33
58018;BME280;43810;50.860;19.226;2023-04-28T01:35:34;99045.44;;;3.96;72.57
58018;BME280;43810;50.860;19.226;2023-04-28T01:38:01;99049.19;;;3.80;72.79
58018;BME280;43810;50.860;19.226;2023-04-28T01:40:27;99038.00;;;3.64;73.54
58018;BME280;43810;50.860;19.226;2023-04-28T01:42:53;99038.59;;;3.46;74.07
58018;BME280;43810;50.860;19.226;2023-04-28T01:45:18;99042.63;;;3.28;74.80
58018;BME280;43810;50.860;19.226;2023-04-28T01:47:44;99039.00;;;3.14;75.27
58018;BME280;43810;50.860;19.226;2023-04-28T01:50:10;99045.34;;;2.98;75.29
58018;BME280;43810;50.860;19.226;2023-04-28T01:52:36;99046.69;;;2.90;75.81
58018;BME280;43810;50.860;19.226;2023-04-28T01:55:02;99046.19;;;2.78;75.95
58018;BME280;43810;50.860;19.226;2023-04-28T01:57:28;99054.34;;;2.66;76.12
58018;BME280;43810;50.860;19.226;2023-04-28T01:59:54;99049.63;;;2.58;75.85
58018;BME280;43810;50.860;19.226;2023-04-28T02:02:20;99050.69;;;2.47;76.68
58018;BME280;43810;50.860;19.226;2023-04-28T02:04:45;99053.31;;;2.42;76.81
58018;BME280;43810;50.860;19.226;2023-04-28T02:07:11;99043.88;;;2.36;77.01
58018;BME280;43810;50.860;19.226;2023-04-28T02:09:37;99052.50;;;2.52;76.27
58018;BME280;43810;50.860;19.226;2023-04-28T02:12:03;99045.44;;;2.52;76.76
58018;BME280;43810;50.860;19.226;2023-04-28T02:14:29;99041.75;;;2.58;76.41
58018;BME280;43810;50.860;19.226;2023-04-28T02:16:59;99039.66;;;2.60;76.42
58018;BME280;43810;50.860;19.226;2023-04-28T02:19:27;99045.94;;;2.54;76.20
58018;BME280;43810;50.860;19.226;2023-04-28T02:21:53;99040.19;;;2.42;76.18
58018;BME280;43810;50.860;19.226;2023-04-28T02:24:18;99038.88;;;2.29;76.66
58018;BME280;43810;50.860;19.226;2023-04-28T02:26:45;99039.41;;;2.16;76.63
58018;BME280;43810;50.860;19.226;2023-04-28T02:29:10;99040.97;;;2.07;77.31
58018;BME280;43810;50.860;19.226;2023-04-28T02:31:36;99038.59;;;1.95;77.83
58018;BME280;43810;50.860;19.226;2023-04-28T02:34:02;99047.22;;;1.86;77.94
58018;BME280;43810;50.860;19.226;2023-04-28T02:36:28;99039.88;;;1.83;77.93
58018;BME280;43810;50.860;19.226;2023-04-28T02:38:54;99035.66;;;1.71;78.59
58018;BME280;43810;50.860;19.226;2023-04-28T02:41:20;99040.91;;;1.66;78.16
58018;BME280;43810;50.860;19.226;2023-04-28T02:43:46;99035.13;;;1.59;78.36
58018;BME280;43810;50.860;19.226;2023-04-28T02:46:12;99037.19;;;1.47;78.84
58018;BME280;43810;50.860;19.226;2023-04-28T02:48:37;99038.72;;;1.38;79.19
58018;BME280;43810;50.860;19.226;2023-04-28T02:51:04;99038.19;;;1.31;79.59
58018;BME280;43810;50.860;19.226;2023-04-28T02:53:29;99028.97;;;1.18;79.46
58018;BME280;43810;50.860;19.226;2023-04-28T02:55:55;99036.19;;;1.01;79.24
58018;BME280;43810;50.860;19.226;2023-04-28T02:58:21;99039.81;;;0.90;80.15
58018;BME280;43810;50.860;19.226;2023-04-28T03:00:47;99031.47;;;0.88;80.38
58018;BME280;43810;50.860;19.226;2023-04-28T03:03:13;99036.94;;;0.86;80.06
58018;BME280;43810;50.860;19.226;2023-04-28T03:05:39;99033.28;;;0.87;80.48
58018;BME280;43810;50.860;19.226;2023-04-28T03:08:05;99040.34;;;0.92;80.75
58018;BME280;43810;50.860;19.226;2023-04-28T03:10:31;99042.72;;;0.93;81.28
58018;BME280;43810;50.860;19.226;2023-04-28T03:12:56;99021.78;;;0.93;81.14
58018;BME280;43810;50.860;19.226;2023-04-28T03:15:22;99030.13;;;0.90;80.98
58018;BME280;43810;50.860;19.226;2023-04-28T03:17:48;99030.91;;;0.86;80.87
58018;BME280;43810;50.860;19.226;2023-04-28T03:20:14;99026.69;;;0.80;81.12
58018;BME280;43810;50.860;19.226;2023-04-28T03:22:39;99038.44;;;0.77;81.30
58018;BME280;43810;50.860;19.226;2023-04-28T03:25:06;99037.38;;;0.73;80.87
58018;BME280;43810;50.860;19.226;2023-04-28T03:27:31;99039.75;;;0.75;81.40
58018;BME280;43810;50.860;19.226;2023-04-28T03:29:58;99043.16;;;0.75;81.26
58018;BME280;43810;50.860;19.226;2023-04-28T03:32:23;99045.28;;;0.83;81.60
58018;BME280;43810;50.860;19.226;2023-04-28T03:34:49;99044.84;;;0.96;82.50
58018;BME280;43810;50.860;19.226;2023-04-28T03:37:15;99038.63;;;1.13;82.26
58018;BME280;43810;50.860;19.226;2023-04-28T03:39:41;99044.94;;;1.17;81.91
58018;BME280;43810;50.860;19.226;2023-04-28T03:42:06;99039.72;;;1.22;81.98
58018;BME280;43810;50.860;19.226;2023-04-28T03:44:32;99041.59;;;1.31;82.01
58018;BME280;43810;50.860;19.226;2023-04-28T03:46:58;99047.91;;;1.41;82.29
58018;BME280;43810;50.860;19.226;2023-04-28T03:49:24;99046.63;;;1.53;82.58
58018;BME280;43810;50.860;19.226;2023-04-28T03:51:50;99050.34;;;1.67;82.76
58018;BME280;43810;50.860;19.226;2023-04-28T03:54:16;99050.91;;;1.80;82.61
58018;BME280;43810;50.860;19.226;2023-04-28T03:56:43;99054.88;;;1.92;82.53
58018;BME280;43810;50.860;19.226;2023-04-28T03:59:09;99045.44;;;2.06;82.43
58018;BME280;43810;50.860;19.226;2023-04-28T04:01:37;99053.31;;;2.22;82.82
58018;BME280;43810;50.860;19.226;2023-04-28T04:04:03;99044.66;;;2.36;82.61
58018;BME280;43810;50.860;19.226;2023-04-28T04:06:29;99056.44;;;2.54;82.38
58018;BME280;43810;50.860;19.226;2023-04-28T04:08:56;99049.59;;;2.73;82.05
58018;BME280;43810;50.860;19.226;2023-04-28T04:11:21;99054.03;;;2.93;81.87
58018;BME280;43810;50.860;19.226;2023-04-28T04:13:48;99045.31;;;3.18;81.30
58018;BME280;43810;50.860;19.226;2023-04-28T04:16:13;99053.09;;;3.38;81.21
58018;BME280;43810;50.860;19.226;2023-04-28T04:18:42;99052.22;;;3.58;80.81
58018;BME280;43810;50.860;19.226;2023-04-28T04:21:08;99050.25;;;3.84;80.67
58018;BME280;43810;50.860;19.226;2023-04-28T04:23:34;99051.34;;;4.12;80.77
58018;BME280;43810;50.860;19.226;2023-04-28T04:25:59;99051.06;;;4.52;80.53
58018;BME280;43810;50.860;19.226;2023-04-28T04:28:25;99050.66;;;4.93;78.88
58018;BME280;43810;50.860;19.226;2023-04-28T04:30:51;99063.28;;;5.20;76.85
58018;BME280;43810;50.860;19.226;2023-04-28T04:33:17;99046.78;;;5.33;75.64
58018;BME280;43810;50.860;19.226;2023-04-28T04:35:43;99049.16;;;5.34;75.28
58018;BME280;43810;50.860;19.226;2023-04-28T04:38:09;99048.69;;;5.27;74.97
58018;BME280;43810;50.860;19.226;2023-04-28T04:40:34;99050.50;;;5.51;75.02
58018;BME280;43810;50.860;19.226;2023-04-28T04:43:01;99061.09;;;5.69;75.56
58018;BME280;43810;50.860;19.226;2023-04-28T04:45:27;99053.41;;;5.92;74.44
58018;BME280;43810;50.860;19.226;2023-04-28T04:47:53;99043.84;;;6.15;72.88
58018;BME280;43810;50.860;19.226;2023-04-28T04:50:18;99050.25;;;6.27;72.12
58018;BME280;43810;50.860;19.226;2023-04-28T04:52:44;99043.19;;;6.23;69.24
58018;BME280;43810;50.860;19.226;2023-04-28T04:55:10;99049.03;;;6.20;69.39
58018;BME280;43810;50.860;19.226;2023-04-28T04:57:36;99045.19;;;6.12;68.13
58018;BME280;43810;50.860;19.226;2023-04-28T05:00:03;99049.78;;;6.06;69.50
58018;BME280;43810;50.860;19.226;2023-04-28T05:02:29;99051.13;;;6.04;69.82
58018;BME280;43810;50.860;19.226;2023-04-28T05:04:55;99052.75;;;6.00;70.25
58018;BME280;43810;50.860;19.226;2023-04-28T05:07:21;99057.91;;;5.91;70.33
58018;BME280;43810;50.860;19.226;2023-04-28T05:09:48;99051.06;;;5.71;71.13
58018;BME280;43810;50.860;19.226;2023-04-28T05:12:15;99054.66;;;5.57;71.07
58018;BME280;43810;50.860;19.226;2023-04-28T05:14:40;99046.03;;;5.51;72.42
58018;BME280;43810;50.860;19.226;2023-04-28T05:17:06;99045.94;;;5.61;73.56
58018;BME280;43810;50.860;19.226;2023-04-28T05:19:32;99038.94;;;5.89;72.08
58018;BME280;43810;50.860;19.226;2023-04-28T05:21:58;99044.19;;;6.27;71.38
58018;BME280;43810;50.860;19.226;2023-04-28T05:24:25;99052.00;;;6.64;71.32
58018;BME280;43810;50.860;19.226;2023-04-28T05:26:51;99051.59;;;7.03;70.07
58018;BME280;43810;50.860;19.226;2023-04-28T05:29:19;99046.59;;;7.29;67.98
58018;BME280;43810;50.860;19.226;2023-04-28T05:31:45;99041.31;;;7.43;64.97
58018;BME280;43810;50.860;19.226;2023-04-28T05:34:10;99051.09;;;7.56;63.22
58018;BME280;43810;50.860;19.226;2023-04-28T05:36:37;99046.63;;;7.79;63.07
58018;BME280;43810;50.860;19.226;2023-04-28T05:39:02;99051.59;;;8.16;63.21
58018;BME280;43810;50.860;19.226;2023-04-28T05:41:28;99056.72;;;8.57;62.11
58018;BME280;43810;50.860;19.226;2023-04-28T05:43:54;99054.78;;;8.72;60.88
58018;BME280;43810;50.860;19.226;2023-04-28T05:46:20;99052.75;;;9.08;61.96
58018;BME280;43810;50.860;19.226;2023-04-28T05:48:46;99056.59;;;9.33;60.62
58018;BME280;43810;50.860;19.226;2023-04-28T05:51:12;99055.56;;;9.12;61.42
58018;BME280;43810;50.860;19.226;2023-04-28T05:53:37;99061.56;;;9.26;63.10
58018;BME280;43810;50.860;19.226;2023-04-28T05:56:04;99059.13;;;9.38;60.66
58018;BME280;43810;50.860;19.226;2023-04-28T05:58:30;99051.47;;;9.37;61.29
58018;BME280;43810;50.860;19.226;2023-04-28T06:00:56;99038.41;;;9.57;62.00
58018;BME280;43810;50.860;19.226;2023-04-28T06:03:22;99046.09;;;9.76;58.99
58018;BME280;43810;50.860;19.226;2023-04-28T06:05:48;99043.09;;;9.69;58.33
58018;BME280;43810;50.860;19.226;2023-04-28T06:08:18;99040.47;;;9.86;58.30
58018;BME280;43810;50.860;19.226;2023-04-28T06:10:44;99039.38;;;10.13;56.69
58018;BME280;43810;50.860;19.226;2023-04-28T06:13:10;99045.47;;;10.22;56.98
58018;BME280;43810;50.860;19.226;2023-04-28T06:15:36;99044.31;;;10.66;57.68
58018;BME280;43810;50.860;19.226;2023-04-28T06:18:02;99038.66;;;10.76;55.60
58018;BME280;43810;50.860;19.226;2023-04-28T06:20:27;99043.03;;;10.72;55.37
58018;BME280;43810;50.860;19.226;2023-04-28T06:22:53;99036.22;;;10.92;57.59
58018;BME280;43810;50.860;19.226;2023-04-28T06:25:19;99043.72;;;10.99;55.79
58018;BME280;43810;50.860;19.226;2023-04-28T06:27:45;99023.81;;;11.13;56.00
58018;BME280;43810;50.860;19.226;2023-04-28T06:30:17;99035.84;;;11.20;54.46
58018;BME280;43810;50.860;19.226;2023-04-28T06:32:43;99037.09;;;11.22;53.06
58018;BME280;43810;50.860;19.226;2023-04-28T06:35:09;99032.78;;;11.38;52.46
58018;BME280;43810;50.860;19.226;2023-04-28T06:37:35;99040.09;;;11.71;54.06
58018;BME280;43810;50.860;19.226;2023-04-28T06:40:01;99036.41;;;11.84;50.98
58018;BME280;43810;50.860;19.226;2023-04-28T06:42:27;99036.00;;;11.94;49.00
58018;BME280;43810;50.860;19.226;2023-04-28T06:44:53;99032.44;;;11.90;49.93
58018;BME280;43810;50.860;19.226;2023-04-28T06:47:18;99024.03;;;12.00;50.96
58018;BME280;43810;50.860;19.226;2023-04-28T06:49:44;99021.28;;;12.09;49.77
58018;BME280;43810;50.860;19.226;2023-04-28T06:52:15;99014.75;;;12.06;48.94
58018;BME280;43810;50.860;19.226;2023-04-28T06:54:41;99019.81;;;11.99;49.31
58018;BME280;43810;50.860;19.226;2023-04-28T06:57:06;99013.75;;;12.44;49.69
58018;BME280;43810;50.860;19.226;2023-04-28T06:59:33;99015.31;;;12.45;47.48
58018;BME280;43810;50.860;19.226;2023-04-28T07:01:59;99009.63;;;12.34;47.74
58018;BME280;43810;50.860;19.226;2023-04-28T07:04:25;99011.41;;;12.30;48.61
58018;BME280;43810;50.860;19.226;2023-04-28T07:06:52;99011.25;;;12.59;48.57
58018;BME280;43810;50.860;19.226;2023-04-28T07:09:18;99008.19;;;12.37;48.98
58018;BME280;43810;50.860;19.226;2023-04-28T07:11:44;99002.28;;;12.31;46.70
58018;BME280;43810;50.860;19.226;2023-04-28T07:14:10;99012.09;;;12.84;49.06
58018;BME280;43810;50.860;19.226;2023-04-28T07:16:36;99001.91;;;13.23;46.12
58018;BME280;43810;50.860;19.226;2023-04-28T07:19:02;99003.84;;;13.50;46.07
58018;BME280;43810;50.860;19.226;2023-04-28T07:21:44;98996.56;;;12.99;44.17
58018;BME280;43810;50.860;19.226;2023-04-28T07:24:16;98995.19;;;12.80;45.55
58018;BME280;43810;50.860;19.226;2023-04-28T07:26:42;98987.00;;;12.98;46.47
58018;BME280;43810;50.860;19.226;2023-04-28T07:29:07;98993.16;;;13.50;44.80
58018;BME280;43810;50.860;19.226;2023-04-28T07:31:34;98982.84;;;13.89;45.58
58018;BME280;43810;50.860;19.226;2023-04-28T07:34:00;98981.56;;;13.98;43.38
58018;BME280;43810;50.860;19.226;2023-04-28T07:36:26;98972.38;;;13.84;45.74
58018;BME280;43810;50.860;19.226;2023-04-28T07:38:52;98973.06;;;14.09;44.68
58018;BME280;43810;50.860;19.226;2023-04-28T07:41:18;98985.38;;;14.25;43.66
58018;BME280;43810;50.860;19.226;2023-04-28T07:43:44;98968.94;;;14.55;44.11
58018;BME280;43810;50.860;19.226;2023-04-28T07:46:11;98975.50;;;14.57;43.18
58018;BME280;43810;50.860;19.226;2023-04-28T07:48:37;98968.69;;;14.75;40.50
58018;BME280;43810;50.860;19.226;2023-04-28T07:51:03;98973.25;;;14.75;41.11
58018;BME280;43810;50.860;19.226;2023-04-28T07:53:29;98963.28;;;15.23;38.01
58018;BME280;43810;50.860;19.226;2023-04-28T07:55:55;98967.59;;;15.62;35.43
58018;BME280;43810;50.860;19.226;2023-04-28T07:58:21;98958.28;;;15.95;37.04
58018;BME280;43810;50.860;19.226;2023-04-28T08:00:47;98955.16;;;16.12;34.46
58018;BME280;43810;50.860;19.226;2023-04-28T08:03:13;98966.03;;;16.19;38.63
58018;BME280;43810;50.860;19.226;2023-04-28T08:05:38;98961.19;;;16.28;39.14
58018;BME280;43810;50.860;19.226;2023-04-28T08:08:05;98953.19;;;15.90;39.14
58018;BME280;43810;50.860;19.226;2023-04-28T08:10:31;98959.22;;;16.25;38.21
58018;BME280;43810;50.860;19.226;2023-04-28T08:12:57;98955.06;;;16.50;36.30
58018;BME280;43810;50.860;19.226;2023-04-28T08:15:23;98945.53;;;16.99;34.35
58018;BME280;43810;50.860;19.226;2023-04-28T08:17:50;98945.69;;;17.09;34.69
58018;BME280;43810;50.860;19.226;2023-04-28T08:20:16;98946.31;;;17.25;34.96
58018;BME280;43810;50.860;19.226;2023-04-28T08:22:47;98946.50;;;17.70;33.96
58018;BME280;43810;50.860;19.226;2023-04-28T08:25:12;98952.44;;;17.86;30.20
58018;BME280;43810;50.860;19.226;2023-04-28T08:27:38;98954.06;;;17.60;34.00
58018;BME280;43810;50.860;19.226;2023-04-28T08:30:08;98949.97;;;18.04;34.47
58018;BME280;43810;50.860;19.226;2023-04-28T08:32:34;98940.75;;;18.05;31.11
58018;BME280;43810;50.860;19.226;2023-04-28T08:35:00;98925.19;;;17.84;32.31
58018;BME280;43810;50.860;19.226;2023-04-28T08:37:26;98941.38;;;17.31;33.04
58018;BME280;43810;50.860;19.226;2023-04-28T08:39:52;98933.19;;;16.94;33.89
58018;BME280;43810;50.860;19.226;2023-04-28T08:42:30;98928.31;;;16.54;34.74
58018;BME280;43810;50.860;19.226;2023-04-28T08:44:57;98936.84;;;16.37;34.67
58018;BME280;43810;50.860;19.226;2023-04-28T08:47:33;98932.19;;;16.11;35.76
58018;BME280;43810;50.860;19.226;2023-04-28T08:50:02;98925.50;;;15.82;38.29
58018;BME280;43810;50.860;19.226;2023-04-28T08:52:30;98916.19;;;15.95;37.86
58018;BME280;43810;50.860;19.226;2023-04-28T08:54:58;98911.22;;;16.16;38.14
58018;BME280;43810;50.860;19.226;2023-04-28T08:57:26;98922.69;;;16.85;37.11
58018;BME280;43810;50.860;19.226;2023-04-28T08:59:53;98928.69;;;17.58;35.72
58018;BME280;43810;50.860;19.226;2023-04-28T09:02:19;98917.13;;;17.84;36.30
58018;BME280;43810;50.860;19.226;2023-04-28T09:04:46;98918.25;;;17.83;35.63
58018;BME280;43810;50.860;19.226;2023-04-28T09:07:12;98918.72;;;17.92;36.64
58018;BME280;43810;50.860;19.226;2023-04-28T09:09:39;98913.22;;;16.91;32.73
58018;BME280;43810;50.860;19.226;2023-04-28T09:12:06;98914.75;;;16.92;35.02
58018;BME280;43810;50.860;19.226;2023-04-28T09:14:35;98915.59;;;16.97;34.93
58018;BME280;43810;50.860;19.226;2023-04-28T09:17:02;98910.78;;;17.09;32.02
58018;BME280;43810;50.860;19.226;2023-04-28T09:19:37;98910.94;;;16.67;32.65
58018;BME280;43810;50.860;19.226;2023-04-28T09:22:04;98906.09;;;16.53;35.73
58018;BME280;43810;50.860;19.226;2023-04-28T09:24:35;98910.78;;;16.37;36.96
58018;BME280;43810;50.860;19.226;2023-04-28T09:27:05;98900.25;;;16.25;38.09
58018;BME280;43810;50.860;19.226;2023-04-28T09:29:32;98893.91;;;16.33;37.15
58018;BME280;43810;50.860;19.226;2023-04-28T09:32:12;98892.88;;;16.18;35.09
58018;BME280;43810;50.860;19.226;2023-04-28T09:34:56;98893.03;;;16.29;36.54
58018;BME280;43810;50.860;19.226;2023-04-28T09:37:24;98894.66;;;16.34;35.77
58018;BME280;43810;50.860;19.226;2023-04-28T09:39:53;98886.84;;;16.48;36.10
58018;BME280;43810;50.860;19.226;2023-04-28T09:44:58;98887.66;;;17.31;38.04
58018;BME280;43810;50.860;19.226;2023-04-28T09:47:24;98874.47;;;17.49;32.74
58018;BME280;43810;50.860;19.226;2023-04-28T09:49:55;98880.94;;;17.78;37.59
58018;BME280;43810;50.860;19.226;2023-04-28T09:52:22;98874.41;;;18.16;35.66
58018;BME280;43810;50.860;19.226;2023-04-28T09:54:49;98863.38;;;18.31;34.10
58018;BME280;43810;50.860;19.226;2023-04-28T09:57:16;98870.53;;;18.61;33.49
58018;BME280;43810;50.860;19.226;2023-04-28T09:59:47;98864.56;;;18.34;33.02
58018;BME280;43810;50.860;19.226;2023-04-28T10:02:18;98860.69;;;17.87;30.61
58018;BME280;43810;50.860;19.226;2023-04-28T10:04:48;98860.63;;;17.47;32.96
58018;BME280;43810;50.860;19.226;2023-04-28T10:07:15;98855.72;;;17.56;33.91
58018;BME280;43810;50.860;19.226;2023-04-28T10:09:42;98855.78;;;17.96;33.69
58018;BME280;43810;50.860;19.226;2023-04-28T10:12:12;98838.38;;;18.24;33.29
58018;BME280;43810;50.860;19.226;2023-04-28T10:14:40;98843.44;;;18.91;33.83
58018;BME280;43810;50.860;19.226;2023-04-28T10:17:06;98849.41;;;19.35;33.72
58018;BME280;43810;50.860;19.226;2023-04-28T10:19:33;98838.69;;;19.50;31.89
58018;BME280;43810;50.860;19.226;2023-04-28T10:25:24;98839.63;;;20.53;31.37
58018;BME280;43810;50.860;19.226;2023-04-28T10:27:51;98838.84;;;20.70;27.99
58018;BME280;43810;50.860;19.226;2023-04-28T10:30:19;98834.19;;;20.78;30.74
58018;BME280;43810;50.860;19.226;2023-04-28T10:32:46;98832.69;;;20.38;33.13
58018;BME280;43810;50.860;19.226;2023-04-28T10:38:26;98816.47;;;20.16;30.22
58018;BME280;43810;50.860;19.226;2023-04-28T10:40:52;98810.13;;;19.24;31.07
58018;BME280;43810;50.860;19.226;2023-04-28T10:56:23;98795.50;;;18.49;36.85
58018;BME280;43810;50.860;19.226;2023-04-28T10:58:58;98787.63;;;18.73;36.75
58018;BME280;43810;50.860;19.226;2023-04-28T11:01:32;98784.66;;;18.96;33.80
58018;BME280;43810;50.860;19.226;2023-04-28T11:04:07;98780.13;;;19.29;34.82
58018;BME280;43810;50.860;19.226;2023-04-28T11:06:43;98787.97;;;19.66;32.17
58018;BME280;43810;50.860;19.226;2023-04-28T11:16:52;98765.19;;;19.45;33.17
58018;BME280;43810;50.860;19.226;2023-04-28T11:20:01;98772.56;;;20.09;34.31
58018;BME280;43810;50.860;19.226;2023-04-28T11:22:18;98761.00;;;19.73;32.09
58018;BME280;43810;50.860;19.226;2023-04-28T11:24:55;98755.56;;;20.51;32.64
58018;BME280;43810;50.860;19.226;2023-04-28T11:27:33;98757.81;;;20.77;30.31
58018;BME280;43810;50.860;19.226;2023-04-28T11:29:59;98767.00;;;20.98;32.84
58018;BME280;43810;50.860;19.226;2023-04-28T11:32:31;98762.81;;;20.82;29.32
58018;BME280;43810;50.860;19.226;2023-04-28T11:34:58;98753.41;;;21.15;31.58
58018;BME280;43810;50.860;19.226;2023-04-28T11:37:24;98758.13;;;21.70;29.83
58018;BME280;43810;50.860;19.226;2023-04-28T11:39:50;98751.84;;;21.80;30.31
58018;BME280;43810;50.860;19.226;2023-04-28T11:42:16;98749.13;;;21.84;30.01
58018;BME280;43810;50.860;19.226;2023-04-28T11:44:49;98741.72;;;21.40;29.32
58018;BME280;43810;50.860;19.226;2023-04-28T11:47:27;98744.41;;;20.35;29.86
58018;BME280;43810;50.860;19.226;2023-04-28T11:49:53;98739.06;;;20.03;29.73
58018;BME280;43810;50.860;19.226;2023-04-28T11:52:19;98741.25;;;19.26;31.12
58018;BME280;43810;50.860;19.226;2023-04-28T11:54:52;98726.28;;;19.29;31.03
58018;BME280;43810;50.860;19.226;2023-04-28T11:57:19;98732.50;;;19.93;31.16
58018;BME280;43810;50.860;19.226;2023-04-28T11:59:46;98723.94;;;20.59;30.42
58018;BME280;43810;50.860;19.226;2023-04-28T12:02:12;98722.22;;;20.97;31.53
58018;BME280;43810;50.860;19.226;2023-04-28T12:04:40;98726.94;;;21.55;31.07
58018;BME280;43810;50.860;19.226;2023-04-28T12:07:10;98724.97;;;22.07;28.05
58018;BME280;43810;50.860;19.226;2023-04-28T12:09:45;98720.19;;;22.25;28.41
58018;BME280;43810;50.860;19.226;2023-04-28T12:12:12;98720.13;;;21.88;28.67
58018;BME280;43810;50.860;19.226;2023-04-28T12:14:58;98718.34;;;22.12;28.00
58018;BME280;43810;50.860;19.226;2023-04-28T12:17:24;98718.38;;;20.98;27.25
58018;BME280;43810;50.860;19.226;2023-04-28T12:19:52;98709.09;;;21.06;26.17
58018;BME280;43810;50.860;19.226;2023-04-28T12:22:18;98709.53;;;20.94;28.72
58018;BME280;43810;50.860;19.226;2023-04-28T12:24:44;98709.31;;;21.88;31.41
58018;BME280;43810;50.860;19.226;2023-04-28T12:27:20;98701.44;;;22.01;29.15
58018;BME280;43810;50.860;19.226;2023-04-28T12:29:50;98703.78;;;22.43;28.05
58018;BME280;43810;50.860;19.226;2023-04-28T12:32:16;98698.53;;;22.59;27.85
58018;BME280;43810;50.860;19.226;2023-04-28T12:34:45;98705.53;;;22.91;27.51
58018;BME280;43810;50.860;19.226;2023-04-28T12:37:11;98694.22;;;23.26;25.50
58018;BME280;43810;50.860;19.226;2023-04-28T12:39:39;98691.22;;;22.90;24.00
58018;BME280;43810;50.860;19.226;2023-04-28T12:42:05;98687.75;;;23.17;26.39
58018;BME280;43810;50.860;19.226;2023-04-28T12:44:32;98677.06;;;23.33;25.46
58018;BME280;43810;50.860;19.226;2023-04-28T12:47:05;98671.06;;;23.45;24.38
58018;BME280;43810;50.860;19.226;2023-04-28T12:49:33;98669.13;;;23.46;27.05
58018;BME280;43810;50.860;19.226;2023-04-28T12:51:59;98667.59;;;23.45;28.37
58018;BME280;43810;50.860;19.226;2023-04-28T12:54:25;98673.56;;;23.36;26.54
58018;BME280;43810;50.860;19.226;2023-04-28T12:56:51;98666.84;;;23.44;26.87
58018;BME280;43810;50.860;19.226;2023-04-28T12:59:19;98675.13;;;23.84;24.81
58018;BME280;43810;50.860;19.226;2023-04-28T13:01:46;98664.41;;;24.59;24.54
58018;BME280;43810;50.860;19.226;2023-04-28T13:04:12;98661.72;;;24.95;22.96
58018;BME280;43810;50.860;19.226;2023-04-28T13:06:38;98659.59;;;24.67;24.48
58018;BME280;43810;50.860;19.226;2023-04-28T13:09:05;98653.34;;;24.50;24.48
58018;BME280;43810;50.860;19.226;2023-04-28T13:11:31;98645.69;;;24.65;22.46
58018;BME280;43810;50.860;19.226;2023-04-28T13:13:57;98641.28;;;24.31;22.89
58018;BME280;43810;50.860;19.226;2023-04-28T13:16:23;98642.94;;;24.45;23.85
58018;BME280;43810;50.860;19.226;2023-04-28T13:18:50;98639.03;;;24.46;25.10
58018;BME280;43810;50.860;19.226;2023-04-28T13:21:16;98644.97;;;24.61;26.14
58018;BME280;43810;50.860;19.226;2023-04-28T13:23:42;98636.06;;;23.04;25.57